createdAt,value
2023-04-12T12:18:36.697Z,17.88
2023-04-12T12:19:36.518Z,17.97
2023-04-12T12:20:36.535Z,18.16
2023-04-12T12:21:36.509Z,18.43
2023-04-12T12:22:36.534Z,18.82
2023-04-12T12:23:36.485Z,18.55
2023-04-12T12:24:40.444Z,18.55
2023-04-12T12:25:37.487Z,18.66
2023-04-12T12:26:36.485Z,19.11
2023-04-12T12:27:36.531Z,19.21
2023-04-12T12:28:36.436Z,19.31
2023-04-12T12:29:36.484Z,19.28
2023-04-12T12:30:36.450Z,19.39
2023-04-12T12:31:37.247Z,19.20
2023-04-12T12:32:36.506Z,19.10
2023-04-12T12:33:45.895Z,18.72
2023-04-12T12:34:37.768Z,18.46
2023-04-12T12:35:36.420Z,18.39
2023-04-12T12:36:36.846Z,17.98
2023-04-12T12:37:36.384Z,18.09
2023-04-12T12:38:37.634Z,17.80
2023-04-12T12:39:36.395Z,17.74
2023-04-12T12:40:36.390Z,17.82
2023-04-12T12:41:36.446Z,18.21
2023-04-12T12:42:36.368Z,18.46
2023-04-12T12:43:36.390Z,18.39
2023-04-12T12:44:37.843Z,18.55
2023-04-12T12:45:36.335Z,18.70
2023-04-12T12:46:51.934Z,18.15
2023-04-12T12:47:37.545Z,18.18
2023-04-12T12:48:36.364Z,18.32
2023-04-12T12:49:36.760Z,18.15
2023-04-12T12:50:36.318Z,18.25
2023-04-12T12:51:36.332Z,18.32
2023-04-12T12:52:36.331Z,18.31
2023-04-12T12:53:36.277Z,18.22
2023-04-12T12:54:41.449Z,18.19
2023-04-12T12:55:37.284Z,18.39
2023-04-12T12:56:36.299Z,18.60
2023-04-12T12:57:36.353Z,18.73
2023-04-12T12:58:36.972Z,18.69
2023-04-12T12:59:36.288Z,18.76
2023-04-12T13:00:36.253Z,18.59
2023-04-12T13:01:36.251Z,18.53
2023-04-12T13:02:36.587Z,19.06
2023-04-12T13:03:36.527Z,19.13
2023-04-12T13:04:36.405Z,18.67
2023-04-12T13:05:36.238Z,18.39
2023-04-12T13:06:36.281Z,18.86
2023-04-12T13:07:36.243Z,19.30
2023-04-12T13:08:36.344Z,19.62
2023-04-12T13:09:36.316Z,19.06
2023-04-12T13:10:36.384Z,19.23
2023-04-12T13:11:36.397Z,19.27
2023-04-12T13:12:36.476Z,19.07
2023-04-12T13:13:36.482Z,19.20
2023-04-12T13:14:36.469Z,19.11
2023-04-12T13:15:36.502Z,19.34
2023-04-12T13:16:36.571Z,19.65
2023-04-12T13:17:36.655Z,19.83
2023-04-12T13:18:36.608Z,19.66
2023-04-12T13:19:36.662Z,19.10
2023-04-12T13:20:39.224Z,19.13
2023-04-12T13:21:36.888Z,19.64
2023-04-12T13:22:37.781Z,19.68
2023-04-12T13:23:37.749Z,19.42
2023-04-12T13:24:36.939Z,18.94
2023-04-12T13:25:36.989Z,18.99
2023-04-12T13:26:36.999Z,19.28
2023-04-12T13:27:37.059Z,19.30
2023-04-12T13:28:37.072Z,19.57
2023-04-12T13:29:37.138Z,19.69
2023-04-12T13:30:37.174Z,19.50
2023-04-12T13:31:37.204Z,19.21
2023-04-12T13:32:37.315Z,19.71
2023-04-12T13:33:37.249Z,19.38
2023-04-12T13:34:37.329Z,19.07
2023-04-12T13:35:37.389Z,19.32
2023-04-12T13:36:37.465Z,19.32
2023-04-12T13:37:37.441Z,19.06
2023-04-12T13:38:37.509Z,18.94
2023-04-12T13:39:37.577Z,19.25
2023-04-12T13:40:37.549Z,19.34
2023-04-12T13:41:37.606Z,19.28
2023-04-12T13:42:37.642Z,19.48
2023-04-12T13:43:37.763Z,19.57
2023-04-12T13:44:37.715Z,19.38
2023-04-12T13:45:37.783Z,19.54
2023-04-12T13:46:38.048Z,19.28
2023-04-12T13:47:37.840Z,19.41
2023-04-12T13:48:37.855Z,19.01
2023-04-12T13:49:38.253Z,19.27
2023-04-12T13:50:37.937Z,18.87
2023-04-12T13:51:37.982Z,19.15
2023-04-12T13:52:37.989Z,18.76
2023-04-12T13:53:38.001Z,18.53
2023-04-12T13:54:38.720Z,18.60
2023-04-12T13:55:38.098Z,18.63
2023-04-12T13:56:38.117Z,18.84
2023-04-12T13:57:38.273Z,19.21
2023-04-12T13:58:38.253Z,19.20
2023-04-12T13:59:38.254Z,19.69
2023-04-12T14:00:38.312Z,19.66
2023-04-12T14:01:38.371Z,19.44
2023-04-12T14:02:38.377Z,19.62
2023-04-12T14:03:38.478Z,19.88
2023-04-12T14:04:38.422Z,20.30
2023-04-12T14:05:38.569Z,20.58
2023-04-12T14:06:38.480Z,20.77
2023-04-12T14:07:38.495Z,20.84
2023-04-12T14:08:38.525Z,21.26
2023-04-12T14:09:38.592Z,21.49
2023-04-12T14:10:38.601Z,21.56
2023-04-12T14:11:38.598Z,21.96
2023-04-12T14:12:38.648Z,22.13
2023-04-12T14:13:38.686Z,22.18
2023-04-12T14:14:38.706Z,22.30
2023-04-12T14:15:38.708Z,22.41
2023-04-12T14:16:38.923Z,22.16
2023-04-12T14:17:38.751Z,22.17
2023-04-12T14:18:38.734Z,22.33
2023-04-12T14:19:38.763Z,22.54
2023-04-12T14:20:38.756Z,22.51
2023-04-12T14:21:38.757Z,22.76
2023-04-12T14:22:38.841Z,23.16
2023-04-12T14:23:38.869Z,23.27
2023-04-12T14:24:39.258Z,23.38
2023-04-12T14:25:38.995Z,23.45
2023-04-12T14:26:39.783Z,23.38
2023-04-12T14:27:39.035Z,23.70
2023-04-12T14:28:39.144Z,23.71
2023-04-12T14:29:39.281Z,23.94
2023-04-12T14:30:39.212Z,24.18
2023-04-12T14:31:39.259Z,23.94
2023-04-12T14:32:39.247Z,23.76
2023-04-12T14:33:39.249Z,23.93
2023-04-12T14:34:39.273Z,23.87
2023-04-12T14:35:39.296Z,23.80
2023-04-12T14:36:39.293Z,24.01
2023-04-12T14:37:39.363Z,24.11
2023-04-12T14:38:41.337Z,24.54
2023-04-12T14:39:39.769Z,24.61
2023-04-12T14:40:39.471Z,24.51
2023-04-12T14:41:40.281Z,24.61
2023-04-12T14:42:39.531Z,24.86
2023-04-12T14:43:39.578Z,24.52
2023-04-12T14:44:39.609Z,24.49
2023-04-12T14:45:39.621Z,24.34
2023-04-12T14:46:39.731Z,24.61
2023-04-12T14:47:39.679Z,24.38
2023-04-12T14:48:39.682Z,24.41
2023-04-12T14:49:39.754Z,23.96
2023-04-12T14:50:39.777Z,23.90
2023-04-12T14:51:39.799Z,23.53
2023-04-12T14:52:39.856Z,23.64
2023-04-12T14:53:39.932Z,24.03
2023-04-12T14:54:39.971Z,24.65
2023-04-12T14:55:39.971Z,25.05
2023-04-12T14:56:47.702Z,25.17
2023-04-12T14:57:41.031Z,24.85
2023-04-12T14:58:40.040Z,25.10
2023-04-12T14:59:40.079Z,25.44
2023-04-12T15:00:39.960Z,24.47
2023-04-12T15:01:40.058Z,24.17
2023-04-12T15:02:40.043Z,24.17
2023-04-12T15:03:40.111Z,24.41
2023-04-12T15:04:40.019Z,24.51
2023-04-12T15:05:39.961Z,24.38
2023-04-12T15:06:39.958Z,24.42
2023-04-12T15:07:39.956Z,24.43
2023-04-12T15:08:39.987Z,24.43
2023-04-12T15:09:39.993Z,24.48
2023-04-12T15:10:40.011Z,24.58
2023-04-12T15:11:40.169Z,24.30
2023-04-12T15:12:40.193Z,24.72
2023-04-12T15:13:40.247Z,25.13
2023-04-12T15:14:40.307Z,25.34
2023-04-12T15:15:40.298Z,25.68
2023-04-12T15:16:40.398Z,26.01
2023-04-12T15:17:40.432Z,25.98
2023-04-12T15:18:40.417Z,25.92
2023-04-12T15:19:40.422Z,25.61
2023-04-12T15:20:40.446Z,25.65
2023-04-12T15:21:40.493Z,25.29
2023-04-12T15:22:40.524Z,25.38
2023-04-12T15:23:40.596Z,24.92
2023-04-12T15:24:40.646Z,24.96
2023-04-12T15:25:40.669Z,24.90
2023-04-12T15:26:40.729Z,24.76
2023-04-12T15:27:40.734Z,24.73
2023-04-12T15:28:40.815Z,24.83
2023-04-12T15:29:40.826Z,24.75
2023-04-12T15:30:40.889Z,24.87
2023-04-12T15:31:41.014Z,25.23
2023-04-12T15:32:42.623Z,25.60
2023-04-12T15:33:41.051Z,25.58
2023-04-12T15:34:41.197Z,25.23
2023-04-12T15:35:41.094Z,24.72
2023-04-12T15:36:41.146Z,24.65
2023-04-12T15:37:41.253Z,24.54
2023-04-12T15:38:42.818Z,24.41
2023-04-12T15:52:32.283Z,25.70
2023-04-12T15:53:32.466Z,25.72
2023-04-12T15:54:32.486Z,26.15
2023-04-12T15:55:32.284Z,25.82
2023-04-12T15:56:32.327Z,26.08
2023-04-12T15:57:32.312Z,26.55
2023-04-12T15:58:32.261Z,26.83
2023-04-12T15:59:32.264Z,26.93
2023-04-12T16:00:32.229Z,26.97
2023-04-12T16:01:32.256Z,26.79
2023-04-12T16:02:32.376Z,26.49
2023-04-12T16:03:32.264Z,27.01
2023-04-12T16:04:32.377Z,26.93
2023-04-12T16:05:32.252Z,27.01
2023-04-12T16:06:32.232Z,26.93
2023-04-12T16:07:32.217Z,26.94
2023-04-12T16:08:32.191Z,27.42
2023-04-12T16:09:32.213Z,27.96
2023-04-12T16:10:32.173Z,28.30
2023-04-12T16:11:32.173Z,28.64
2023-04-12T16:12:32.164Z,28.74
2023-04-12T16:13:32.192Z,28.75
2023-04-12T16:14:32.200Z,28.82
2023-04-12T16:15:32.150Z,28.84
2023-04-12T16:16:32.196Z,29.07
2023-04-12T16:17:32.179Z,28.98
2023-04-12T16:18:32.128Z,29.07
2023-04-12T16:19:32.193Z,29.32
2023-04-12T16:20:32.151Z,29.08
2023-04-12T16:21:32.118Z,29.49
2023-04-12T16:22:32.139Z,28.77
2023-04-12T16:23:32.103Z,29.07
2023-04-12T16:24:32.538Z,29.18
2023-04-12T16:25:32.099Z,28.79
2023-04-12T16:26:32.104Z,28.58
2023-04-12T16:27:32.079Z,28.63
2023-04-12T16:28:32.074Z,27.78
2023-04-12T16:29:32.068Z,28.32
2023-04-12T16:30:32.179Z,28.47
2023-04-12T16:31:32.066Z,28.57
2023-04-12T16:32:32.132Z,28.68
2023-04-12T16:33:32.076Z,28.47
2023-04-12T16:34:32.162Z,28.06
2023-04-12T16:35:32.174Z,28.12
2023-04-12T16:36:32.245Z,28.17
2023-04-12T16:37:32.324Z,28.43
2023-04-12T16:38:32.340Z,28.23
2023-04-12T16:39:32.403Z,28.13
2023-04-12T16:40:32.403Z,28.15
2023-04-12T16:41:32.393Z,27.62
2023-04-12T16:42:32.466Z,26.70
2023-04-12T16:43:32.478Z,26.55
2023-04-12T16:44:32.582Z,26.25
2023-04-12T16:45:32.574Z,26.13
2023-04-12T16:46:32.591Z,25.19
2023-04-12T16:47:32.640Z,24.93
2023-04-12T16:48:32.670Z,24.41
2023-04-12T16:49:33.053Z,24.55
2023-04-12T16:50:32.719Z,24.39
2023-04-12T16:51:36.944Z,24.22
2023-04-12T16:52:32.754Z,24.12
2023-04-12T16:53:32.771Z,23.69
2023-04-12T16:54:32.759Z,23.57
2023-04-12T16:55:32.782Z,23.20
2023-04-12T16:56:32.719Z,23.13
2023-04-12T16:57:32.702Z,22.84
2023-04-12T16:58:32.709Z,22.81
2023-04-12T16:59:32.692Z,22.46
2023-04-12T17:00:32.776Z,22.55
2023-04-12T17:01:32.656Z,22.37
2023-04-12T17:02:32.871Z,22.51
2023-04-12T17:03:32.768Z,22.34
2023-04-12T17:04:32.741Z,22.41
2023-04-12T17:05:32.684Z,22.11
2023-04-12T17:06:32.634Z,22.14
2023-04-12T17:07:32.620Z,22.20
2023-04-12T17:08:32.650Z,22.07
2023-04-12T17:09:32.649Z,21.83
2023-04-12T17:10:32.681Z,21.85
2023-04-12T17:11:32.588Z,21.82
2023-04-12T17:12:32.655Z,21.66
2023-04-12T17:13:32.619Z,21.45
2023-04-12T17:14:32.641Z,21.29
2023-04-12T17:15:32.668Z,21.22
2023-04-12T17:16:32.756Z,21.02
2023-04-12T17:17:32.774Z,20.95
2023-04-12T17:18:32.752Z,20.83
2023-04-12T17:19:32.800Z,20.67
2023-04-12T17:20:32.870Z,20.48
2023-04-12T17:21:32.823Z,20.27
2023-04-12T17:22:32.872Z,20.17
2023-04-12T17:23:32.893Z,19.86
2023-04-12T17:24:32.986Z,19.82
2023-04-12T17:25:32.974Z,19.88
2023-04-12T17:26:33.016Z,19.48
2023-04-12T17:27:33.071Z,19.52
2023-04-12T17:28:33.071Z,19.18
2023-04-12T17:29:33.081Z,19.31
2023-04-12T17:30:33.159Z,19.14
2023-04-12T17:32:33.264Z,19.24
2023-04-12T17:33:33.298Z,18.36
2023-04-12T17:34:33.328Z,18.16
2023-04-12T17:35:33.360Z,18.31
2023-04-12T17:36:33.420Z,18.41
2023-04-12T17:37:33.425Z,18.27
2023-04-12T17:38:33.444Z,18.27
2023-04-12T17:39:33.507Z,18.31
2023-04-12T17:40:33.496Z,18.33
2023-04-12T17:41:33.500Z,18.24
2023-04-12T17:42:33.575Z,17.94
2023-04-12T17:43:33.590Z,17.95
2023-04-12T17:44:33.606Z,17.94
2023-04-12T17:45:33.725Z,17.99
2023-04-12T17:46:33.667Z,18.05
2023-04-12T17:47:34.657Z,18.12
2023-04-12T17:48:33.734Z,18.04
2023-04-12T17:49:33.803Z,17.85
2023-04-12T17:50:33.822Z,17.64
2023-04-12T17:51:33.784Z,17.70
2023-04-12T17:52:33.798Z,17.81
2023-04-12T17:53:33.859Z,17.82
2023-04-12T17:54:33.906Z,17.97
2023-04-12T17:55:34.007Z,17.91
2023-04-12T17:56:33.991Z,17.99
2023-04-12T17:57:33.977Z,17.99
2023-04-12T17:58:34.073Z,18.04
2023-04-12T17:59:34.091Z,17.92
2023-04-12T18:00:34.157Z,17.98
2023-04-12T18:01:36.620Z,17.84
2023-04-12T18:02:34.358Z,17.82
2023-04-12T18:03:34.291Z,17.76
2023-04-12T18:04:34.178Z,17.84
2023-04-12T18:05:34.153Z,17.78
2023-04-12T18:06:34.170Z,17.63
2023-04-12T18:07:34.130Z,17.78
2023-04-12T18:08:34.102Z,17.74
2023-04-12T18:09:34.131Z,17.51
2023-04-12T18:10:34.138Z,17.61
2023-04-12T18:11:34.109Z,17.56
2023-04-12T18:12:34.076Z,17.23
2023-04-12T18:13:34.097Z,17.34
2023-04-12T18:14:34.069Z,17.16
2023-04-12T18:15:34.169Z,17.16
2023-04-12T18:16:34.178Z,17.12
2023-04-12T18:17:34.137Z,17.05
2023-04-12T18:18:34.113Z,17.09
2023-04-12T18:19:34.056Z,17.19
2023-04-12T18:20:34.076Z,17.12
2023-04-12T18:21:34.045Z,17.10
2023-04-12T18:22:34.052Z,17.05
2023-04-12T18:23:34.025Z,17.12
2023-04-12T18:24:34.974Z,17.09
2023-04-12T18:25:34.021Z,17.10
2023-04-12T18:26:34.026Z,17.17
2023-04-12T18:27:34.050Z,16.86
2023-04-12T18:28:34.014Z,16.83
2023-04-12T18:29:33.995Z,16.98
2023-04-12T18:30:34.013Z,16.76
2023-04-12T18:31:34.096Z,16.50
2023-04-12T18:32:34.085Z,16.58
2023-04-12T18:33:33.956Z,15.96
2023-04-12T18:34:33.958Z,16.20
2023-04-12T18:35:33.939Z,15.97
2023-04-12T18:36:34.017Z,15.89
2023-04-12T18:37:33.928Z,16.11
2023-04-12T18:38:34.015Z,16.08
2023-04-12T18:39:33.940Z,16.14
2023-04-12T18:40:33.951Z,16.00
2023-04-12T18:41:33.951Z,16.11
2023-04-12T18:42:34.009Z,15.94
2023-04-12T18:43:33.992Z,16.13
2023-04-12T18:44:34.022Z,15.89
2023-04-12T18:45:34.031Z,15.69
2023-04-12T18:46:34.127Z,15.47
2023-04-12T18:47:34.169Z,15.52
2023-04-12T18:48:34.086Z,15.67
2023-04-12T18:49:34.124Z,15.90
2023-04-12T18:50:34.176Z,16.08
2023-04-12T18:51:34.215Z,16.20
2023-04-12T18:52:34.265Z,16.29
2023-04-12T18:53:34.345Z,16.43
2023-04-12T18:54:34.345Z,16.51
2023-04-12T18:55:34.424Z,16.61
2023-04-12T18:56:34.395Z,15.74
2023-04-12T18:57:34.407Z,15.83
2023-04-12T18:58:50.421Z,15.32
2023-04-12T18:59:35.487Z,15.52
2023-04-12T19:00:34.440Z,15.67
2023-04-12T19:01:34.424Z,15.69
2023-04-12T19:02:34.693Z,15.73
2023-04-12T19:03:34.458Z,15.90
2023-04-12T19:04:34.391Z,16.03
2023-04-12T19:05:34.391Z,15.87
2023-04-12T19:06:34.365Z,15.98
2023-04-12T19:07:34.397Z,16.03
2023-04-12T19:08:34.386Z,15.76
2023-04-12T19:09:34.381Z,15.76
2023-04-12T19:10:34.337Z,16.00
2023-04-12T19:11:36.787Z,16.14
2023-04-12T19:12:34.328Z,16.18
2023-04-12T19:13:34.450Z,16.31
2023-04-12T19:14:34.315Z,16.43
2023-04-12T19:15:34.329Z,16.52
2023-04-12T19:16:34.308Z,16.54
2023-04-12T19:17:34.336Z,16.66
2023-04-12T19:18:34.310Z,16.52
2023-04-12T19:19:34.298Z,16.66
2023-04-12T19:20:34.380Z,16.71
2023-04-12T19:21:34.342Z,16.78
2023-04-12T19:22:34.246Z,16.79
2023-04-12T19:23:34.276Z,16.32
2023-04-12T19:24:34.250Z,15.97
2023-04-12T19:25:34.252Z,15.72
2023-04-12T19:26:34.283Z,15.66
2023-04-12T19:27:34.246Z,15.87
2023-04-12T19:28:34.276Z,16.01
2023-04-12T19:29:34.229Z,16.00
2023-04-12T19:30:34.252Z,15.94
2023-04-12T19:31:34.221Z,16.04
2023-04-12T19:32:34.223Z,16.06
2023-04-12T19:33:34.206Z,16.01
2023-04-12T19:34:34.215Z,16.07
2023-04-12T19:35:34.189Z,16.01
2023-04-12T19:36:34.206Z,16.14
2023-04-12T19:37:34.327Z,16.21
2023-04-12T19:38:34.142Z,16.29
2023-04-12T19:39:34.180Z,16.24
2023-04-12T19:40:34.134Z,16.31
2023-04-12T19:41:34.143Z,16.24
2023-04-12T19:42:34.122Z,16.31
2023-04-12T19:43:34.127Z,15.92
2023-04-12T19:44:34.108Z,15.79
2023-04-12T19:45:34.182Z,15.42
2023-04-12T19:46:34.089Z,15.19
2023-04-12T19:47:34.129Z,15.33
2023-04-12T19:48:34.077Z,15.11
2023-04-12T19:49:34.083Z,15.22
2023-04-12T19:50:34.064Z,15.17
2023-04-12T19:51:34.084Z,15.04
2023-04-12T19:52:34.190Z,15.21
2023-04-12T19:53:34.074Z,15.04
2023-04-12T19:54:34.032Z,14.71
2023-04-12T19:55:34.049Z,14.80
2023-04-12T19:56:34.007Z,14.91
2023-04-12T19:57:34.030Z,14.78
2023-04-12T19:58:34.691Z,14.67
2023-04-12T19:59:34.289Z,14.73
2023-04-12T20:00:34.342Z,14.83
2023-04-12T20:01:34.326Z,14.73
2023-04-12T20:02:34.373Z,14.73
2023-04-12T20:03:34.247Z,14.63
2023-04-12T20:04:34.421Z,14.51
2023-04-12T20:06:53.486Z,14.01
2023-04-12T20:07:53.452Z,13.93
2023-04-12T20:08:53.441Z,14.20
2023-04-12T20:09:53.467Z,14.24
2023-04-12T20:10:53.530Z,14.23
2023-04-12T20:11:53.495Z,14.48
2023-04-12T20:12:53.437Z,14.32
2023-04-12T20:13:53.447Z,14.43
2023-04-12T20:14:53.426Z,14.50
2023-04-12T20:15:53.471Z,14.32
2023-04-12T20:16:53.482Z,14.45
2023-04-12T20:17:53.493Z,14.61
2023-04-12T20:18:53.401Z,14.50
2023-04-12T20:19:55.365Z,14.40
2023-04-12T20:20:53.550Z,14.64
2023-04-12T20:21:53.632Z,14.68
2023-04-12T20:22:53.608Z,14.60
2023-04-12T20:23:53.679Z,14.73
2023-04-12T20:24:53.630Z,14.78
2023-04-12T20:25:53.662Z,14.92
2023-04-12T20:26:55.365Z,14.87
2023-04-12T20:27:53.730Z,14.99
2023-04-12T20:28:53.779Z,14.92
2023-04-12T20:29:53.832Z,14.70
2023-04-12T20:30:53.868Z,14.67
2023-04-12T20:31:53.799Z,14.74
2023-04-12T20:32:53.897Z,14.92
2023-04-12T20:33:53.831Z,14.87
2023-04-12T20:34:53.811Z,14.75
2023-04-12T20:35:53.844Z,14.88
2023-04-12T20:36:54.020Z,14.77
2023-04-12T20:37:53.922Z,14.88
2023-04-12T20:38:53.979Z,15.05
2023-04-12T20:39:54.048Z,15.12
2023-04-12T20:40:54.046Z,15.15
2023-04-12T20:41:54.777Z,15.05
2023-04-12T20:42:54.162Z,15.04
2023-04-12T20:43:54.202Z,14.74
2023-04-12T20:44:54.215Z,14.75
2023-04-12T20:45:54.249Z,14.53
2023-04-12T20:46:54.428Z,14.48
2023-04-12T20:47:54.432Z,13.92
2023-04-12T20:48:54.340Z,13.85
2023-04-12T20:49:54.354Z,13.75
2023-04-12T20:50:54.406Z,13.86
2023-04-12T20:51:54.452Z,13.92
2023-04-12T20:52:54.952Z,13.35
2023-04-12T20:53:54.467Z,13.55
2023-04-12T20:54:54.498Z,13.34
2023-04-12T20:55:54.568Z,13.38
2023-04-12T20:56:54.647Z,13.45
2023-04-12T20:57:54.602Z,13.48
2023-04-12T20:58:54.698Z,13.59
2023-04-12T20:59:54.739Z,13.64
2023-04-12T21:00:54.790Z,13.61
2023-04-12T21:01:54.887Z,13.61
2023-04-12T21:02:54.959Z,13.93
2023-04-12T21:03:54.876Z,14.16
2023-04-12T21:04:54.847Z,14.37
2023-04-12T21:05:54.915Z,14.33
2023-04-12T21:06:54.983Z,14.45
2023-04-12T21:07:54.999Z,14.17
2023-04-12T21:08:55.145Z,14.23
2023-04-12T21:09:55.012Z,14.41
2023-04-12T21:10:55.083Z,13.90
2023-04-12T21:11:55.065Z,13.92
2023-04-12T21:12:55.164Z,13.89
2023-04-12T21:13:55.137Z,14.15
2023-04-12T21:14:55.159Z,14.15
2023-04-12T21:15:55.220Z,13.93
2023-04-12T21:16:55.237Z,14.02
2023-04-12T21:17:55.358Z,14.29
2023-04-12T21:18:55.429Z,14.50
2023-04-12T21:19:55.321Z,14.29
2023-04-12T21:20:55.391Z,14.44
2023-04-12T21:21:55.416Z,14.53
2023-04-12T21:22:55.411Z,14.54
2023-04-12T21:23:55.477Z,14.75
2023-04-12T21:24:55.545Z,14.88
2023-04-12T21:25:55.514Z,15.02
2023-04-12T21:26:56.315Z,14.96
2023-04-12T21:27:55.576Z,15.11
2023-04-12T21:28:55.682Z,14.95
2023-04-12T21:29:55.630Z,14.73
2023-04-12T21:30:55.672Z,14.54
2023-04-12T21:31:55.731Z,14.39
2023-04-12T21:32:55.713Z,14.39
2023-04-12T21:33:55.704Z,14.27
2023-04-12T21:34:55.736Z,14.23
2023-04-12T21:35:55.834Z,14.13
2023-04-12T21:36:55.692Z,13.92
2023-04-12T21:37:55.718Z,14.02
2023-04-12T21:38:56.022Z,13.85
2023-04-12T21:39:55.862Z,13.95
2023-04-12T21:40:55.860Z,13.50
2023-04-12T21:41:55.895Z,13.52
2023-04-12T21:42:55.889Z,13.17
2023-04-12T21:43:55.936Z,13.22
2023-04-12T21:44:56.108Z,13.18
2023-04-12T21:45:56.025Z,12.91
2023-04-12T21:46:56.044Z,12.80
2023-04-12T21:47:56.117Z,12.60
2023-04-12T21:48:56.232Z,12.53
2023-04-12T21:49:56.111Z,12.38
2023-04-12T21:50:56.279Z,12.42
2023-04-12T21:51:56.154Z,12.49
2023-04-12T21:52:56.180Z,12.35
2023-04-12T21:53:56.245Z,12.40
2023-04-12T21:54:56.222Z,12.15
2023-04-12T21:55:56.228Z,12.33
2023-04-12T21:56:56.225Z,12.33
2023-04-12T21:57:56.268Z,11.87
2023-04-12T21:58:56.418Z,11.70
2023-04-12T21:59:56.304Z,11.34
2023-04-12T22:00:56.376Z,11.13
2023-04-12T22:01:56.370Z,11.10
2023-04-12T22:02:56.533Z,11.20
2023-04-12T22:03:56.415Z,10.93
2023-04-12T22:04:56.430Z,10.82
2023-04-12T22:06:04.225Z,10.80
2023-04-12T22:06:59.294Z,10.74
2023-04-12T22:07:56.406Z,10.95
2023-04-12T22:08:56.428Z,10.95
2023-04-12T22:09:56.390Z,10.89
2023-04-12T22:10:56.421Z,10.65
2023-04-12T22:11:56.379Z,10.87
2023-04-12T22:12:56.372Z,10.83
2023-04-12T22:13:56.361Z,10.72
2023-04-12T22:14:56.325Z,10.79
2023-04-12T22:15:56.366Z,10.98
2023-04-12T22:16:56.361Z,10.82
2023-04-12T22:17:56.374Z,10.83
2023-04-12T22:18:56.457Z,10.86
2023-04-12T22:19:56.321Z,10.80
2023-04-12T22:20:56.352Z,10.74
2023-04-12T22:21:56.307Z,10.75
2023-04-12T22:22:56.301Z,10.68
2023-04-12T22:23:56.371Z,10.85
2023-04-12T22:24:56.292Z,10.96
2023-04-12T22:25:56.270Z,10.79
2023-04-12T22:26:56.323Z,10.74
2023-04-12T22:27:56.267Z,10.82
2023-04-12T22:28:56.301Z,10.83
2023-04-12T22:29:56.235Z,10.86
2023-04-12T22:30:56.285Z,10.89
2023-04-12T22:31:56.213Z,10.91
2023-04-12T22:32:56.262Z,10.82
2023-04-12T22:33:56.419Z,10.71
2023-04-12T22:35:05.300Z,10.52
2023-04-12T22:35:57.202Z,10.51
2023-04-12T22:36:56.208Z,10.44
2023-04-12T22:37:56.216Z,10.41
2023-04-12T22:38:56.185Z,10.34
2023-04-12T22:39:56.199Z,10.43
2023-04-12T22:40:56.179Z,10.41
2023-04-12T22:41:56.192Z,10.48
2023-04-12T22:42:56.175Z,10.51
2023-04-12T22:43:56.315Z,10.62
2023-04-12T22:44:56.128Z,10.64
2023-04-12T22:45:56.191Z,10.64
2023-04-12T22:46:56.129Z,10.54
2023-04-12T22:47:56.181Z,10.49
2023-04-12T22:48:56.168Z,10.48
2023-04-12T22:49:56.105Z,10.37
2023-04-12T22:50:56.166Z,10.37
2023-04-12T22:51:56.166Z,10.54
2023-04-12T22:52:56.235Z,10.48
2023-04-12T22:53:56.350Z,10.45
2023-04-12T22:54:56.242Z,10.34
2023-04-12T22:55:56.311Z,10.27
2023-04-12T22:56:56.279Z,10.30
2023-04-12T22:57:56.325Z,10.31
2023-04-12T22:58:56.308Z,10.38
2023-04-12T22:59:56.366Z,10.58
2023-04-12T23:00:56.345Z,10.76
2023-04-12T23:01:56.426Z,10.66
2023-04-12T23:02:56.571Z,10.65
2023-04-12T23:03:56.508Z,10.55
2023-04-12T23:04:56.544Z,10.47
2023-04-12T23:05:56.448Z,10.48
2023-04-12T23:06:56.461Z,10.44
2023-04-12T23:07:56.485Z,10.28
2023-04-12T23:08:56.543Z,10.43
2023-04-12T23:09:56.561Z,10.38
2023-04-12T23:10:56.592Z,10.33
2023-04-12T23:11:56.666Z,10.30
2023-04-12T23:12:56.713Z,10.28
2023-04-12T23:13:56.844Z,10.41
2023-04-12T23:14:56.726Z,10.51
2023-04-12T23:15:56.753Z,10.37
2023-04-12T23:16:56.745Z,10.51
2023-04-12T23:17:56.808Z,10.48
2023-04-12T23:18:56.789Z,10.65
2023-04-12T23:19:56.812Z,10.66
2023-04-12T23:20:56.825Z,10.64
2023-04-12T23:21:56.890Z,10.72
2023-04-12T23:22:58.355Z,10.91
2023-04-12T23:23:57.161Z,10.74
2023-04-12T23:24:56.998Z,10.82
2023-04-12T23:25:57.052Z,11.05
2023-04-12T23:26:57.100Z,11.30
2023-04-12T23:27:57.105Z,11.40
2023-04-12T23:28:57.139Z,11.46
2023-04-12T23:29:57.144Z,11.57
2023-04-12T23:30:57.280Z,11.82
2023-04-12T23:31:57.256Z,11.85
2023-04-12T23:32:57.270Z,11.84
2023-04-12T23:33:57.558Z,11.74
2023-04-12T23:34:57.397Z,11.38
2023-04-12T23:35:57.359Z,11.50
2023-04-12T23:36:57.425Z,11.63
2023-04-12T23:37:57.456Z,11.71
2023-04-12T23:38:57.465Z,11.73
2023-04-12T23:39:57.545Z,11.78
2023-04-12T23:40:57.572Z,11.77
2023-04-12T23:41:57.673Z,12.04
2023-04-12T23:42:58.321Z,12.14
2023-04-12T23:43:57.890Z,12.21
2023-04-12T23:44:57.764Z,12.31
2023-04-12T23:45:57.714Z,12.15
2023-04-12T23:46:57.779Z,11.73
2023-04-12T23:47:57.829Z,11.88
2023-04-12T23:48:57.843Z,12.22
2023-04-12T23:49:57.825Z,12.15
2023-04-12T23:50:57.889Z,12.39
2023-04-12T23:51:57.868Z,12.43
2023-04-12T23:52:57.897Z,12.50
2023-04-12T23:53:58.133Z,12.66
2023-04-12T23:54:57.935Z,12.56
2023-04-12T23:55:57.962Z,12.40
2023-04-12T23:56:57.983Z,12.46
2023-04-12T23:57:57.934Z,12.42
2023-04-12T23:58:57.940Z,12.33
2023-04-12T23:59:57.971Z,12.52
